Time;durP1;ratioP1;P1;durP2;ratioP2;P2;SDS_P1;SDS_P2;PMS_P1;PMS_P2;Temp;Humidity;BMP_temperature;BMP_pressure;BME280_temperature;BME280_humidity;BME280_pressure;Samples;Min_cycle;Max_cycle;Signal;HPM_P1;HPM_P2
2021/04/03 00:02:08;;;;;;;32.97;20.17;;;333.10;1638.40;;;;;;4827110;29;20041;-71
2021/04/03 00:04:33;;;;;;;30.15;19.27;;;333.00;1689.60;;;;;;4844750;29;20030;-72
2021/04/03 00:06:59;;;;;;;27.42;18.30;;;332.90;1689.60;;;;;;4838997;29;20113;-72
2021/04/03 00:09:25;;;;;;;28.77;19.80;;;333.00;1689.60;;;;;;4827760;29;20034;-71
2021/04/03 00:11:51;;;;;;;35.55;19.95;;;333.00;1715.20;;;;;;4844257;29;20034;-72
2021/04/03 00:14:16;;;;;;;31.35;19.80;;;333.00;1766.40;;;;;;4844628;29;20026;-73
2021/04/03 00:16:42;;;;;;;28.85;19.50;;;332.90;1843.20;;;;;;4826895;29;20045;-74
2021/04/03 00:19:08;;;;;;;27.65;19.33;;;332.90;1868.80;;;;;;4844318;29;20052;-73
2021/04/03 00:21:34;;;;;;;28.52;18.25;;;332.80;1894.40;;;;;;4843854;29;20026;-72
2021/04/03 00:24:00;;;;;;;30.00;21.15;;;332.80;1920.00;;;;;;4840085;29;20050;-73
2021/04/03 00:26:25;;;;;;;30.02;21.77;;;332.80;1945.60;;;;;;4842636;29;20064;-73
2021/04/03 00:28:51;;;;;;;28.13;19.17;;;332.80;1996.80;;;;;;4844113;29;20034;-73
2021/04/03 00:31:18;;;;;;;29.23;19.60;;;332.80;1996.80;;;;;;4849056;29;20033;-73
2021/04/03 00:33:44;;;;;;;30.10;21.13;;;308.10;1971.20;;;;;;4851632;29;20050;-73
2021/04/03 00:36:10;;;;;;;30.70;22.13;;;308.00;1971.20;;;;;;4857074;29;20101;-72
2021/04/03 00:38:35;;;;;;;30.10;21.10;;;308.00;1971.20;;;;;;4852548;29;20125;-72
2021/04/03 00:41:01;;;;;;;30.52;21.65;;;307.80;1971.20;;;;;;4831633;29;20174;-72
2021/04/03 00:43:27;;;;;;;33.38;23.88;;;307.90;1971.20;;;;;;4850719;29;20036;-73
2021/04/03 00:45:53;;;;;;;38.33;24.42;;;307.80;1996.80;;;;;;4850084;29;20045;-73
2021/04/03 00:48:19;;;;;;;39.13;23.48;;;307.80;1996.80;;;;;;4842507;29;20041;-73
2021/04/03 00:50:48;;;;;;;33.25;22.50;;;307.70;2022.40;;;;;;4846704;29;20021;-73
2021/04/03 00:53:17;;;;;;;32.88;21.65;;;307.70;2022.40;;;;;;4843386;29;20034;-71
2021/04/03 00:55:43;;;;;;;29.67;21.00;;;307.60;2073.60;;;;;;4842953;29;20046;-73
2021/04/03 00:58:10;;;;;;;35.42;23.50;;;307.50;2073.60;;;;;;4856800;29;20025;-74
2021/04/03 01:00:37;;;;;;;36.25;23.95;;;307.40;2099.20;;;;;;4843498;29;20026;-73
2021/04/03 01:03:02;;;;;;;41.60;25.92;;;307.30;2099.20;;;;;;4826436;29;20453;-74
2021/04/03 01:05:28;;;;;;;41.53;26.35;;;307.20;2150.40;;;;;;4843544;29;20094;-75
2021/04/03 01:07:55;;;;;;;49.03;29.20;;;282.40;2201.60;;;;;;4860837;29;20029;-74
2021/04/03 01:10:25;;;;;;;36.78;24.50;;;282.30;2278.40;;;;;;4858502;29;20021;-74
2021/04/03 01:13:16;;;;;;;40.80;24.92;;;282.20;2278.40;;;;;;4843345;29;20105;-75
2021/04/03 01:16:18;;;;;;;46.00;27.05;;;282.10;2278.40;;;;;;4774298;30;20035;-75
2021/04/03 01:19:21;;;;;;;42.08;26.13;;;282.10;2278.40;;;;;;4771936;30;20036;-76
2021/04/03 01:22:32;;;;;;;42.83;28.10;;;281.90;2278.40;;;;;;4769167;30;20191;-76
2021/04/03 01:25:01;;;;;;;50.05;30.25;;;281.80;2278.40;;;;;;4755517;30;20047;-75
2021/04/03 01:27:27;;;;;;;44.33;27.60;;;281.70;2278.40;;;;;;4767439;30;20135;-75
2021/04/03 01:30:01;;;;;;;44.03;28.65;;;281.70;2278.40;;;;;;4768581;30;20097;-76
2021/04/03 01:32:50;;;;;;;45.67;28.10;;;281.60;2278.40;;;;;;4768572;30;20039;-74
2021/04/03 01:35:26;;;;;;;46.45;28.98;;;281.60;2278.40;;;;;;4754027;30;20108;-75
2021/04/03 01:37:59;;;;;;;45.25;31.33;;;256.90;2252.80;;;;;;4779584;30;20032;-75
2021/04/03 01:40:25;;;;;;;46.55;29.75;;;281.60;2278.40;;;;;;4768864;30;20039;-75
2021/04/03 01:43:14;;;;;;;43.22;28.77;;;256.90;2252.80;;;;;;4753049;30;20024;-76
2021/04/03 01:45:42;;;;;;;47.97;29.45;;;256.80;2252.80;;;;;;4768515;30;20135;-75
2021/04/03 01:48:14;;;;;;;49.97;29.83;;;256.80;2252.80;;;;;;4768194;30;20493;-75
2021/04/03 01:50:41;;;;;;;45.65;27.65;;;256.80;2252.80;;;;;;4752896;30;20105;-76
2021/04/03 01:53:07;;;;;;;47.20;29.70;;;256.70;2252.80;;;;;;4792766;29;20035;-75
2021/04/03 01:55:34;;;;;;;47.20;30.05;;;256.70;2252.80;;;;;;4825871;29;20571;-75
2021/04/03 01:58:00;;;;;;;41.63;27.70;;;256.80;2252.80;;;;;;4861062;29;20030;-75
2021/04/03 02:00:28;;;;;;;52.03;31.95;;;256.70;2252.80;;;;;;4856398;29;20029;-75
2021/04/03 02:02:55;;;;;;;44.22;28.30;;;256.80;2252.80;;;;;;4843174;29;20073;-75
2021/04/03 02:05:21;;;;;;;48.28;29.30;;;256.80;2252.80;;;;;;4842822;29;20109;-75
2021/04/03 02:07:48;;;;;;;41.38;27.23;;;256.80;2252.80;;;;;;4842710;29;20037;-75
2021/04/03 02:10:23;;;;;;;45.38;27.80;;;256.80;2252.80;;;;;;4842167;29;20033;-74
2021/04/03 02:12:49;;;;;;;44.35;27.33;;;256.80;2252.80;;;;;;4825804;29;20128;-74
2021/04/03 02:15:16;;;;;;;37.75;25.40;;;256.80;2252.80;;;;;;4841383;29;20034;-75
2021/04/03 02:17:46;;;;;;;38.72;25.75;;;256.80;2252.80;;;;;;4841885;29;20065;-75
2021/04/03 02:20:13;;;;;;;40.30;24.98;;;256.80;2252.80;;;;;;4837545;29;20094;-75
2021/04/03 02:22:42;;;;;;;39.97;27.85;;;256.90;2252.80;;;;;;4824069;29;20430;-75
2021/04/03 02:25:10;;;;;;;45.50;26.35;;;256.90;2252.80;;;;;;4825750;29;20032;-75
2021/04/03 02:27:37;;;;;;;43.28;26.33;;;256.90;2252.80;;;;;;4825279;29;20050;-74
2021/04/03 02:30:12;;;;;;;35.10;24.48;;;256.90;2252.80;;;;;;4841543;29;20033;-75
2021/04/03 02:32:42;;;;;;;37.58;25.08;;;256.90;2252.80;;;;;;4825814;29;20025;-75
2021/04/03 02:35:09;;;;;;;49.08;28.52;;;281.60;2278.40;;;;;;4841698;29;20033;-75
2021/04/03 02:37:35;;;;;;;40.42;24.85;;;281.60;2278.40;;;;;;4825877;29;20037;-75
2021/04/03 02:40:03;;;;;;;35.63;23.50;;;256.90;2252.80;;;;;;4826846;29;20126;-75
2021/04/03 02:42:29;;;;;;;35.08;24.55;;;256.90;2252.80;;;;;;4825643;29;20098;-76
2021/04/03 02:45:02;;;;;;;38.20;25.00;;;256.80;2252.80;;;;;;4841535;29;20041;-76
2021/04/03 02:47:44;;;;;;;39.80;25.48;;;256.90;2252.80;;;;;;4841736;29;20030;-75
2021/04/03 02:50:42;;;;;;;35.63;23.48;;;256.90;2252.80;;;;;;4828049;29;20029;-77
2021/04/03 02:53:13;;;;;;;41.72;24.48;;;256.90;2252.80;;;;;;4822284;29;20046;-76
2021/04/03 02:55:46;;;;;;;37.13;24.40;;;256.80;2252.80;;;;;;4824825;29;20057;-77
2021/04/03 02:58:16;;;;;;;35.60;23.15;;;256.80;2252.80;;;;;;4842024;29;20026;-76
2021/04/03 03:00:43;;;;;;;36.65;25.33;;;256.70;2252.80;;;;;;4841219;29;20059;-75
2021/04/03 03:03:11;;;;;;;40.63;24.20;;;256.70;2252.80;;;;;;4816802;29;20047;-75
2021/04/03 03:05:37;;;;;;;36.85;25.10;;;256.80;2252.80;;;;;;4818833;29;20658;-76
2021/04/03 03:08:04;;;;;;;41.88;25.52;;;256.90;2252.80;;;;;;4818009;29;20048;-75
2021/04/03 03:10:32;;;;;;;37.67;24.25;;;256.90;2252.80;;;;;;4837321;29;21658;-76
2021/04/03 03:12:58;;;;;;;39.17;25.35;;;281.60;2278.40;;;;;;4824778;29;20492;-76
2021/04/03 03:15:30;;;;;;;40.63;25.75;;;256.90;2252.80;;;;;;4854421;29;20033;-76
2021/04/03 03:17:56;;;;;;;35.17;23.38;;;256.80;2252.80;;;;;;4841217;29;20454;-77
2021/04/03 03:20:22;;;;;;;36.45;24.02;;;256.90;2252.80;;;;;;4825006;29;20033;-77
2021/04/03 03:22:49;;;;;;;39.28;23.27;;;256.90;2252.80;;;;;;4841738;29;20050;-76
2021/04/03 03:25:15;;;;;;;39.08;23.65;;;256.80;2252.80;;;;;;4824895;29;20063;-76
2021/04/03 03:27:45;;;;;;;37.90;24.45;;;256.80;2252.80;;;;;;4841154;29;20054;-76
2021/04/03 03:30:14;;;;;;;33.00;22.90;;;256.70;2252.80;;;;;;4824193;29;20038;-77
2021/04/03 03:32:40;;;;;;;36.13;22.35;;;256.50;2252.80;;;;;;4825044;29;20090;-76
2021/04/03 03:35:06;;;;;;;33.55;22.35;;;256.50;2252.80;;;;;;4839264;29;20034;-76
2021/04/03 03:37:32;;;;;;;32.45;20.77;;;256.40;2252.80;;;;;;4825075;29;20034;-76
2021/04/03 03:39:59;;;;;;;33.42;20.35;;;256.40;2252.80;;;;;;4841078;29;20026;-76
2021/04/03 03:42:25;;;;;;;30.45;21.02;;;256.30;2252.80;;;;;;4841182;29;20514;-76
2021/04/03 03:44:51;;;;;;;38.22;23.67;;;256.40;2252.80;;;;;;4824815;29;20488;-78
2021/04/03 03:47:18;;;;;;;38.00;22.70;;;256.30;2252.80;;;;;;4823656;29;20586;-77
2021/04/03 03:49:44;;;;;;;28.40;19.83;;;256.30;2252.80;;;;;;4824990;29;20048;-76
2021/04/03 03:52:09;;;;;;;36.15;22.25;;;256.30;2252.80;;;;;;4840484;29;20033;-78
2021/04/03 03:54:35;;;;;;;38.45;23.30;;;256.20;2252.80;;;;;;4840159;29;20038;-78
2021/04/03 03:57:02;;;;;;;39.65;23.63;;;256.10;2252.80;;;;;;4853941;29;20030;-77
2021/04/03 03:59:29;;;;;;;38.38;24.00;;;256.10;2252.80;;;;;;4824847;29;20499;-77
2021/04/03 04:01:55;;;;;;;35.90;23.08;;;256.10;2252.80;;;;;;4824440;29;20026;-77
2021/04/03 04:04:21;;;;;;;38.42;23.90;;;256.10;2252.80;;;;;;4824946;29;20038;-77
2021/04/03 04:06:47;;;;;;;39.13;23.40;;;256.20;2252.80;;;;;;4840828;29;20022;-78
2021/04/03 04:09:13;;;;;;;41.70;25.70;;;256.20;2252.80;;;;;;4824372;29;20094;-76
2021/04/03 04:11:39;;;;;;;43.20;25.40;;;256.20;2252.80;;;;;;4824479;29;20031;-76
2021/04/03 04:14:04;;;;;;;39.35;26.33;;;256.20;2252.80;;;;;;4824228;29;20030;-76
2021/04/03 04:16:30;;;;;;;41.83;25.60;;;256.10;2252.80;;;;;;4824164;29;20049;-75
2021/04/03 04:18:56;;;;;;;41.33;25.10;;;256.20;2252.80;;;;;;4839859;29;20038;-75
2021/04/03 04:21:23;;;;;;;37.60;21.92;;;256.10;2252.80;;;;;;4844038;29;20053;-76
2021/04/03 04:23:49;;;;;;;38.80;24.45;;;256.20;2252.80;;;;;;4823646;29;20034;-75
2021/04/03 04:26:14;;;;;;;36.45;20.63;;;256.20;2252.80;;;;;;4840755;29;20046;-76
2021/04/03 04:28:40;;;;;;;34.70;21.48;;;256.30;2252.80;;;;;;4839858;29;20113;-75
2021/04/03 04:31:11;;;;;;;33.28;21.42;;;256.30;2252.80;;;;;;4824583;29;20454;-76
2021/04/03 04:33:36;;;;;;;32.85;21.05;;;256.40;2252.80;;;;;;4823351;29;20037;-76
2021/04/03 04:36:03;;;;;;;28.73;20.55;;;256.30;2252.80;;;;;;4840085;29;20030;-76
2021/04/03 04:38:28;;;;;;;35.30;20.40;;;256.30;2252.80;;;;;;4825098;29;20052;-76
2021/04/03 04:40:54;;;;;;;30.70;19.95;;;256.40;2252.80;;;;;;4841804;29;20475;-76
2021/04/03 04:43:25;;;;;;;28.48;17.50;;;256.30;2252.80;;;;;;4858513;29;20485;-76
2021/04/03 04:45:51;;;;;;;30.90;19.50;;;256.30;2252.80;;;;;;4831962;29;20030;-76
2021/04/03 04:48:16;;;;;;;26.73;18.13;;;256.30;2252.80;;;;;;4848048;29;20121;-76
2021/04/03 04:50:42;;;;;;;28.40;17.52;;;256.40;2252.80;;;;;;4833982;29;20514;-75
2021/04/03 04:53:08;;;;;;;27.20;16.08;;;256.50;2252.80;;;;;;4843676;29;20082;-75
2021/04/03 04:55:34;;;;;;;22.95;16.38;;;256.50;2252.80;;;;;;4849472;29;20042;-76
2021/04/03 04:58:00;;;;;;;26.02;17.10;;;256.50;2252.80;;;;;;4826534;29;20441;-77
2021/04/03 05:00:27;;;;;;;25.45;15.48;;;256.50;2252.80;;;;;;4827157;29;20038;-76
2021/04/03 05:02:52;;;;;;;25.38;16.42;;;256.60;2252.80;;;;;;4826974;29;20090;-75
2021/04/03 05:05:18;;;;;;;24.15;15.07;;;256.60;2252.80;;;;;;4826870;29;20041;-75
2021/04/03 05:07:44;;;;;;;25.23;17.15;;;256.50;2252.80;;;;;;4843563;29;20109;-75
2021/04/03 05:10:11;;;;;;;20.65;15.35;;;256.40;2252.80;;;;;;4843410;29;20133;-76
2021/04/03 05:12:37;;;;;;;25.42;15.48;;;256.50;2252.80;;;;;;4826639;29;20048;-76
2021/04/03 05:15:04;;;;;;;25.00;15.95;;;256.50;2252.80;;;;;;4836475;29;20114;-76
2021/04/03 05:17:30;;;;;;;22.58;16.88;;;256.40;2252.80;;;;;;4826773;29;20026;-75
2021/04/03 05:19:56;;;;;;;20.23;14.05;;;256.50;2252.80;;;;;;4826877;29;20400;-75
2021/04/03 05:22:21;;;;;;;28.15;15.90;;;256.40;2252.80;;;;;;4841704;29;20412;-76
2021/04/03 05:24:47;;;;;;;25.15;16.45;;;256.30;2252.80;;;;;;4826862;29;20026;-76
2021/04/03 05:27:13;;;;;;;23.50;15.15;;;256.30;2252.80;;;;;;4842701;29;20588;-76
2021/04/03 05:29:38;;;;;;;26.33;15.57;;;256.30;2252.80;;;;;;4843296;29;20030;-76
2021/04/03 05:32:05;;;;;;;21.33;14.23;;;256.40;2252.80;;;;;;4842887;29;20065;-76
2021/04/03 05:34:31;;;;;;;22.40;15.07;;;256.40;2252.80;;;;;;4826375;29;20029;-76
2021/04/03 05:36:57;;;;;;;20.15;14.55;;;256.40;2252.80;;;;;;4843377;29;20575;-77
2021/04/03 05:39:23;;;;;;;21.88;15.57;;;256.30;2252.80;;;;;;4826684;29;20441;-77
2021/04/03 05:41:48;;;;;;;26.02;18.02;;;256.30;2252.80;;;;;;4826868;29;20045;-77
2021/04/03 05:44:15;;;;;;;25.95;18.05;;;256.30;2252.80;;;;;;4829378;29;20049;-78
2021/04/03 05:46:43;;;;;;;24.20;16.05;;;256.20;2252.80;;;;;;4827004;29;20462;-77
2021/04/03 05:49:10;;;;;;;30.10;19.77;;;256.20;2252.80;;;;;;4842654;29;20030;-76
2021/04/03 05:51:35;;;;;;;26.38;16.85;;;256.30;2252.80;;;;;;4841398;29;20029;-76
2021/04/03 05:54:02;;;;;;;24.33;16.27;;;256.30;2252.80;;;;;;4842158;29;20473;-77
2021/04/03 05:56:38;;;;;;;23.60;15.25;;;256.30;2252.80;;;;;;4839827;29;20038;-78
2021/04/03 05:59:05;;;;;;;25.45;17.17;;;256.30;2252.80;;;;;;4825069;29;20026;-78
2021/04/03 06:01:33;;;;;;;24.50;16.02;;;256.30;2252.80;;;;;;4825834;29;20061;-78
2021/04/03 06:03:59;;;;;;;22.95;15.23;;;256.30;2252.80;;;;;;4823752;29;20082;-78
2021/04/03 06:06:25;;;;;;;22.02;14.52;;;256.40;2252.80;;;;;;4843304;29;20051;-78
2021/04/03 06:08:52;;;;;;;19.45;12.43;;;256.30;2252.80;;;;;;4823375;29;20539;-78
2021/04/03 06:11:20;;;;;;;21.55;13.30;;;256.30;2252.80;;;;;;4842590;29;20033;-78
2021/04/03 06:14:01;;;;;;;21.38;13.43;;;256.40;2252.80;;;;;;4842062;29;20094;-79
2021/04/03 06:16:33;;;;;;;23.08;14.35;;;256.50;2252.80;;;;;;4822512;29;20078;-78
2021/04/03 06:19:19;;;;;;;22.65;14.85;;;256.60;2252.80;;;;;;4822410;29;20036;-78
2021/04/03 06:22:15;;;;;;;18.98;12.60;;;256.60;2252.80;;;;;;4823546;29;20053;-78
2021/04/03 06:24:41;;;;;;;20.63;13.82;;;256.60;2252.80;;;;;;4822721;29;20075;-77
2021/04/03 06:27:17;;;;;;;18.83;13.18;;;256.60;2252.80;;;;;;4825087;29;20093;-78
2021/04/03 06:29:49;;;;;;;19.02;13.07;;;256.60;2252.80;;;;;;4840006;29;20466;-75
2021/04/03 06:32:42;;;;;;;22.60;14.88;;;256.70;2252.80;;;;;;4822981;29;20132;-75
2021/04/03 06:35:09;;;;;;;20.10;13.75;;;256.80;2252.80;;;;;;4820686;29;20507;-75
2021/04/03 06:37:37;;;;;;;20.08;14.32;;;256.80;2252.80;;;;;;4839907;29;20105;-75
2021/04/03 06:40:07;;;;;;;22.52;14.63;;;256.80;2252.80;;;;;;4834427;29;20033;-76
2021/04/03 06:42:39;;;;;;;27.70;18.75;;;256.70;2252.80;;;;;;4825303;29;20037;-77
2021/04/03 06:45:21;;;;;;;44.92;27.08;;;256.70;2252.80;;;;;;4823099;29;20083;-77
2021/04/03 06:47:48;;;;;;;54.75;33.30;;;256.70;2252.80;;;;;;4822959;29;20476;-76
2021/04/03 06:50:15;;;;;;;43.67;27.35;;;256.80;2252.80;;;;;;4825185;29;20030;-78
2021/04/03 06:52:42;;;;;;;36.55;23.15;;;256.70;2252.80;;;;;;4841861;29;20058;-77
2021/04/03 06:55:11;;;;;;;31.27;20.13;;;256.60;2252.80;;;;;;4824942;29;20536;-77
2021/04/03 06:57:40;;;;;;;31.45;20.75;;;256.50;2252.80;;;;;;4840903;29;20034;-76
2021/04/03 07:00:06;;;;;;;30.73;20.05;;;256.50;2252.80;;;;;;4823142;29;20090;-75
2021/04/03 07:02:50;;;;;;;33.42;20.08;;;256.60;2252.80;;;;;;4825381;29;20064;-77
2021/04/03 07:05:19;;;;;;;36.65;20.98;;;256.70;2252.80;;;;;;4821890;29;20117;-76
2021/04/03 07:07:45;;;;;;;27.02;18.00;;;256.70;2252.80;;;;;;4840511;29;20040;-77
2021/04/03 07:10:15;;;;;;;28.55;18.80;;;256.90;2252.80;;;;;;4818664;29;20454;-77
2021/04/03 07:12:42;;;;;;;27.25;17.27;;;256.90;2252.80;;;;;;4841297;29;20453;-76
2021/04/03 07:15:10;;;;;;;36.75;24.38;;;256.90;2252.80;;;;;;4824797;29;20049;-78
2021/04/03 07:17:40;;;;;;;33.75;22.10;;;281.60;2278.40;;;;;;4826292;29;20492;-76
2021/04/03 07:20:15;;;;;;;28.85;18.25;;;281.60;2278.40;;;;;;4817972;29;20030;-76
2021/04/03 07:22:55;;;;;;;28.45;18.20;;;256.90;2252.80;;;;;;4825191;29;20025;-77
2021/04/03 07:25:22;;;;;;;34.38;22.05;;;256.80;2252.80;;;;;;4841491;29;20046;-77
2021/04/03 07:27:48;;;;;;;45.38;29.15;;;256.90;2252.80;;;;;;4840664;29;20534;-77
2021/04/03 07:30:40;;;;;;;43.53;26.80;;;256.90;2252.80;;;;;;4825022;29;20038;-77
2021/04/03 07:33:23;;;;;;;75.10;38.28;;;281.60;2278.40;;;;;;4840714;29;20124;-77
2021/04/03 07:35:51;;;;;;;62.50;31.73;;;281.70;2278.40;;;;;;4822007;29;20149;-77
2021/04/03 07:38:25;;;;;;;53.63;32.13;;;281.60;2278.40;;;;;;4824812;29;20070;-78
2021/04/03 07:40:54;;;;;;;33.50;19.70;;;281.80;2278.40;;;;;;4835138;29;20500;-78
2021/04/03 07:43:29;;;;;;;29.17;19.42;;;281.90;2278.40;;;;;;4823075;29;20120;-76
2021/04/03 07:46:08;;;;;;;30.42;19.88;;;282.10;2278.40;;;;;;4841368;29;20086;-77
2021/04/03 07:48:41;;;;;;;31.00;18.08;;;282.10;2278.40;;;;;;4840980;29;20030;-77
2021/04/03 07:51:13;;;;;;;32.38;22.08;;;282.10;2278.40;;;;;;4824689;29;20492;-80
2021/04/03 07:53:40;;;;;;;30.50;19.98;;;282.10;2278.40;;;;;;4815515;29;20044;-76
2021/04/03 07:56:08;;;;;;;25.00;17.10;;;282.20;2278.40;;;;;;4840391;29;20109;-76
2021/04/03 07:58:46;;;;;;;27.20;17.27;;;282.30;2278.40;;;;;;4824571;29;20162;-77
2021/04/03 08:01:12;;;;;;;22.48;16.95;;;307.30;2304.00;;;;;;4840627;29;20700;-77
2021/04/03 08:03:39;;;;;;;23.00;16.63;;;307.30;2304.00;;;;;;4823616;29;20026;-77
2021/04/03 08:06:07;;;;;;;27.48;17.88;;;307.20;2304.00;;;;;;4827132;29;20050;-79
2021/04/03 08:08:35;;;;;;;23.60;17.05;;;307.20;2304.00;;;;;;4822791;29;20133;-79
2021/04/03 08:11:15;;;;;;;23.33;15.95;;;282.50;2278.40;;;;;;4817046;29;20038;-78
2021/04/03 08:13:49;;;;;;;25.77;16.02;;;307.20;2304.00;;;;;;4839414;29;20029;-76
2021/04/03 08:16:17;;;;;;;27.55;17.90;;;307.20;2304.00;;;;;;4844039;29;20113;-77
2021/04/03 08:18:45;;;;;;;24.40;16.25;;;307.20;2304.00;;;;;;4843522;29;20053;-78
2021/04/03 08:21:12;;;;;;;25.15;14.73;;;307.20;2252.80;;;;;;4844231;29;20063;-77
2021/04/03 08:23:50;;;;;;;25.95;17.00;;;307.40;2252.80;;;;;;4824922;29;20174;-74
2021/04/03 08:26:17;;;;;;;28.45;18.48;;;307.50;2278.40;;;;;;4843298;29;20053;-77
2021/04/03 08:28:44;;;;;;;25.58;17.42;;;307.60;2252.80;;;;;;4828097;29;20042;-77
2021/04/03 08:31:22;;;;;;;24.58;15.70;;;307.50;2227.20;;;;;;4826695;29;20086;-79
2021/04/03 08:33:51;;;;;;;23.15;16.88;;;307.50;2227.20;;;;;;4844129;29;20030;-78
2021/04/03 08:36:24;;;;;;;22.30;15.93;;;307.40;2227.20;;;;;;4827750;29;20025;-79
2021/04/03 08:38:50;;;;;;;20.10;14.40;;;307.40;2278.40;;;;;;4826502;29;20388;-78
2021/04/03 08:41:18;;;;;;;23.77;16.15;;;307.40;2252.80;;;;;;4827710;29;20034;-80
2021/04/03 08:43:45;;;;;;;20.38;14.15;;;307.30;2201.60;;;;;;4843932;29;20030;-81
2021/04/03 08:46:14;;;;;;;19.95;15.13;;;307.40;2201.60;;;;;;4844759;29;21427;-80
2021/04/03 08:48:45;;;;;;;21.05;13.82;;;307.50;2201.60;;;;;;4830050;29;20034;-79
2021/04/03 08:51:12;;;;;;;22.30;14.65;;;307.70;2150.40;;;;;;4843678;29;20365;-80
2021/04/03 08:53:41;;;;;;;21.58;15.95;;;307.70;2150.40;;;;;;4826273;29;20045;-77
2021/04/03 08:56:07;;;;;;;19.52;13.90;;;307.80;2073.60;;;;;;4826817;29;20038;-76
2021/04/03 08:58:35;;;;;;;24.00;15.65;;;307.70;2048.00;;;;;;4823567;29;20038;-77
2021/04/03 09:01:01;;;;;;;21.63;14.73;;;307.80;2048.00;;;;;;4815970;29;20106;-77
2021/04/03 09:03:27;;;;;;;23.20;15.95;;;307.70;2048.00;;;;;;4843000;29;20030;-77
2021/04/03 09:05:53;;;;;;;18.60;13.43;;;307.90;2022.40;;;;;;4827188;29;20037;-75
2021/04/03 09:08:23;;;;;;;21.88;13.25;;;307.90;1945.60;;;;;;4826014;29;20113;-76
2021/04/03 09:11:01;;;;;;;21.40;14.07;;;307.90;1920.00;;;;;;4826015;29;21023;-76
2021/04/03 09:13:35;;;;;;;16.05;11.95;;;307.70;1945.60;;;;;;4823557;29;20084;-76
2021/04/03 09:16:16;;;;;;;18.90;12.90;;;307.90;1920.00;;;;;;4826415;29;20429;-76
2021/04/03 09:18:43;;;;;;;17.85;13.25;;;308.10;1843.20;;;;;;4821851;29;20046;-76
2021/04/03 09:21:20;;;;;;;15.63;11.07;;;332.80;1843.20;;;;;;4824296;29;20022;-76
2021/04/03 09:23:50;;;;;;;14.20;11.32;;;308.10;1792.00;;;;;;4822016;29;20124;-75
2021/04/03 09:26:16;;;;;;;16.65;12.73;;;308.00;1740.80;;;;;;4822920;29;20404;-76
2021/04/03 09:28:43;;;;;;;19.25;12.82;;;308.00;1843.20;;;;;;4842003;29;20078;-77
2021/04/03 09:31:10;;;;;;;17.70;12.63;;;307.90;1792.00;;;;;;4824733;29;20045;-77
2021/04/03 09:33:47;;;;;;;20.13;13.63;;;307.90;1817.60;;;;;;4824907;29;20034;-77
2021/04/03 09:36:18;;;;;;;17.60;12.82;;;308.10;1843.20;;;;;;4824801;29;20038;-75
2021/04/03 09:38:45;;;;;;;17.60;12.73;;;308.10;1792.00;;;;;;4829215;29;20042;-78
2021/04/03 09:41:19;;;;;;;17.30;13.00;;;332.80;1817.60;;;;;;4841610;29;20522;-76
2021/04/03 09:43:45;;;;;;;17.90;12.55;;;332.90;1715.20;;;;;;4840899;29;20124;-76
2021/04/03 09:46:11;;;;;;;17.92;13.20;;;333.00;1740.80;;;;;;4825490;29;20113;-77
2021/04/03 09:48:37;;;;;;;19.00;12.73;;;333.10;1689.60;;;;;;4825746;29;20030;-76
2021/04/03 09:51:07;;;;;;;18.25;11.88;;;333.10;1689.60;;;;;;4831428;29;20759;-77
2021/04/03 09:53:33;;;;;;;15.40;11.13;;;333.30;1664.00;;;;;;4825595;29;20082;-76
2021/04/03 09:55:59;;;;;;;17.65;11.23;;;333.30;1664.00;;;;;;4825350;29;20042;-77
2021/04/03 09:58:25;;;;;;;16.45;11.68;;;333.40;1664.00;;;;;;4842095;29;20113;-76
2021/04/03 10:00:51;;;;;;;28.55;13.32;;;333.50;1664.00;;;;;;4824976;29;20034;-77
2021/04/03 10:03:17;;;;;;;15.38;10.63;;;358.40;1689.60;;;;;;4825325;29;20121;-76
2021/04/03 10:05:43;;;;;;;15.30;10.40;;;358.40;1689.60;;;;;;4824983;29;20121;-78
2021/04/03 10:08:09;;;;;;;17.90;12.70;;;333.40;1715.20;;;;;;4829191;29;20429;-77
2021/04/03 10:10:35;;;;;;;15.52;11.10;;;333.50;1715.20;;;;;;4825256;29;20074;-77
2021/04/03 10:13:01;;;;;;;15.02;10.93;;;333.10;1740.80;;;;;;4832006;29;20038;-75
2021/04/03 10:15:26;;;;;;;18.77;13.43;;;333.10;1766.40;;;;;;4842094;29;20026;-78
2021/04/03 10:17:52;;;;;;;20.95;12.88;;;333.30;1792.00;;;;;;4841957;29;20496;-77
2021/04/03 10:20:19;;;;;;;16.95;12.20;;;333.40;1792.00;;;;;;4831907;29;20030;-76
2021/04/03 10:22:45;;;;;;;16.17;11.82;;;333.30;1792.00;;;;;;4841724;29;20030;-77
2021/04/03 10:25:13;;;;;;;27.85;15.93;;;333.40;1766.40;;;;;;4827319;29;20041;-76
2021/04/03 10:27:38;;;;;;;21.02;15.05;;;333.50;1766.40;;;;;;4821884;29;20057;-76
2021/04/03 10:30:06;;;;;;;18.70;14.25;;;333.60;1740.80;;;;;;4841217;29;20084;-77
2021/04/03 10:32:32;;;;;;;18.60;12.80;;;333.70;1740.80;;;;;;4839796;29;20042;-75
2021/04/03 10:34:58;;;;;;;20.45;14.35;;;333.70;1740.80;;;;;;4841561;29;20033;-74
2021/04/03 10:37:24;;;;;;;17.20;12.95;;;333.70;1740.80;;;;;;4840807;29;20392;-75
2021/04/03 10:39:50;;;;;;;17.15;11.30;;;358.60;1740.80;;;;;;4840557;29;20450;-76
2021/04/03 10:42:16;;;;;;;16.20;12.35;;;358.60;1715.20;;;;;;4824966;29;20125;-75
2021/04/03 10:44:42;;;;;;;19.42;13.90;;;333.70;1715.20;;;;;;4824003;29;20037;-73
2021/04/03 10:47:08;;;;;;;22.83;14.57;;;358.50;1689.60;;;;;;4840831;29;20041;-74
2021/04/03 10:49:34;;;;;;;20.48;13.15;;;358.50;1715.20;;;;;;4839657;29;20030;-73
2021/04/03 10:52:00;;;;;;;24.10;15.50;;;358.60;1612.80;;;;;;4840952;29;20025;-73
2021/04/03 10:54:26;;;;;;;24.38;16.48;;;358.60;1689.60;;;;;;4840419;29;20022;-75
2021/04/03 10:56:51;;;;;;;16.20;12.90;;;358.60;1689.60;;;;;;4840166;29;20038;-73
2021/04/03 10:59:18;;;;;;;20.08;13.05;;;358.90;1638.40;;;;;;4838858;29;20029;-74
2021/04/03 11:01:44;;;;;;;85.88;19.60;;;359.10;1638.40;;;;;;4840260;29;20030;-75
2021/04/03 11:04:09;;;;;;;46.38;17.50;;;384.00;1612.80;;;;;;4821994;29;20039;-75
2021/04/03 11:06:35;;;;;;;21.05;14.45;;;384.20;1638.40;;;;;;4840115;29;20385;-76
2021/04/03 11:09:01;;;;;;;22.83;15.77;;;384.10;1561.60;;;;;;4841087;29;20468;-79
2021/04/03 11:11:27;;;;;;;21.08;13.68;;;384.00;1561.60;;;;;;4823923;29;20037;-83
2021/04/03 11:13:53;;;;;;;23.73;14.93;;;359.30;1510.40;;;;;;4824674;29;20046;-80
2021/04/03 11:16:19;;;;;;;42.80;15.98;;;384.10;1536.00;;;;;;4824475;29;20082;-78
2021/04/03 11:18:44;;;;;;;41.63;16.35;;;384.00;1536.00;;;;;;4824845;29;20030;-79
2021/04/03 11:21:10;;;;;;;24.30;15.45;;;359.30;1561.60;;;;;;4823243;29;20038;-79
2021/04/03 11:23:36;;;;;;;28.70;16.92;;;359.00;1612.80;;;;;;4824821;29;20030;-81
2021/04/03 11:26:02;;;;;;;60.47;19.65;;;359.20;1587.20;;;;;;4839692;29;20105;-77
2021/04/03 11:28:27;;;;;;;20.77;14.60;;;384.00;1612.80;;;;;;4840422;29;20044;-76
2021/04/03 11:30:53;;;;;;;18.80;15.18;;;384.60;1536.00;;;;;;4840078;29;20410;-78
2021/04/03 11:33:20;;;;;;;26.70;16.02;;;409.90;1510.40;;;;;;4839804;29;20065;-78
2021/04/03 11:35:46;;;;;;;21.25;16.25;;;435.20;1484.80;;;;;;4841097;29;20104;-82
2021/04/03 11:38:12;;;;;;;21.58;15.02;;;410.10;1459.20;;;;;;4824564;29;20038;-78
2021/04/03 11:40:37;;;;;;;21.67;15.80;;;410.00;1408.00;;;;;;4840815;29;20069;-74
2021/04/03 11:43:03;;;;;;;22.80;15.77;;;410.10;1408.00;;;;;;4822384;29;20504;-76
2021/04/03 11:45:30;;;;;;;19.00;15.57;;;409.90;1382.40;;;;;;4823971;29;20041;-75
2021/04/03 11:47:56;;;;;;;25.83;17.20;;;384.90;1382.40;;;;;;4841898;29;20068;-81
2021/04/03 11:50:22;;;;;;;20.80;16.35;;;409.60;1408.00;;;;;;4827981;29;20042;-76
2021/04/03 11:52:49;;;;;;;21.65;16.38;;;409.70;1433.60;;;;;;4827344;29;20041;-76
2021/04/03 11:55:16;;;;;;;21.33;15.40;;;409.90;1433.60;;;;;;4841840;29;20026;-76
2021/04/03 11:57:43;;;;;;;21.08;16.42;;;410.30;1433.60;;;;;;4827580;29;20041;-77
2021/04/03 12:00:11;;;;;;;20.52;15.52;;;410.40;1356.80;;;;;;4827858;29;20173;-75
2021/04/03 12:02:38;;;;;;;22.73;16.52;;;435.90;1305.60;;;;;;4826709;29;20030;-76
2021/04/03 12:05:05;;;;;;;25.30;18.23;;;435.80;1331.20;;;;;;4827358;29;20090;-77
2021/04/03 12:07:38;;;;;;;25.50;15.90;;;435.70;1356.80;;;;;;4844303;29;20021;-78